sensor_id;sensor_type;location;lat;lon;timestamp;temperature;humidity
18721;DHT22;9489;50.948;3.114;2023-04-25T00:01:17;9.80;99.90
18721;DHT22;9489;50.948;3.114;2023-04-25T00:03:43;9.70;99.90
18721;DHT22;9489;50.948;3.114;2023-04-25T00:06:08;9.70;99.90
18721;DHT22;9489;50.948;3.114;2023-04-25T00:08:34;9.70;99.90
18721;DHT22;9489;50.948;3.114;2023-04-25T00:11:00;9.70;99.90
18721;DHT22;9489;50.948;3.114;2023-04-25T00:13:26;9.70;99.90
18721;DHT22;9489;50.948;3.114;2023-04-25T00:15:52;9.70;99.90
18721;DHT22;9489;50.948;3.114;2023-04-25T00:18:25;9.70;99.90
18721;DHT22;9489;50.948;3.114;2023-04-25T00:20:54;9.80;99.90
18721;DHT22;9489;50.948;3.114;2023-04-25T00:23:20;9.70;99.90
18721;DHT22;9489;50.948;3.114;2023-04-25T00:25:47;9.70;99.90
18721;DHT22;9489;50.948;3.114;2023-04-25T00:28:14;9.70;99.90
18721;DHT22;9489;50.948;3.114;2023-04-25T00:30:40;9.60;99.90
18721;DHT22;9489;50.948;3.114;2023-04-25T00:33:06;9.50;99.90
18721;DHT22;9489;50.948;3.114;2023-04-25T00:35:32;9.50;99.90
18721;DHT22;9489;50.948;3.114;2023-04-25T00:37:58;9.50;99.90
18721;DHT22;9489;50.948;3.114;2023-04-25T00:40:24;9.50;99.90
18721;DHT22;9489;50.948;3.114;2023-04-25T00:42:51;9.50;99.90
18721;DHT22;9489;50.948;3.114;2023-04-25T00:45:18;9.50;99.90
18721;DHT22;9489;50.948;3.114;2023-04-25T00:47:43;9.40;99.90
18721;DHT22;9489;50.948;3.114;2023-04-25T00:50:11;9.40;99.90
18721;DHT22;9489;50.948;3.114;2023-04-25T00:52:39;9.30;99.90
18721;DHT22;9489;50.948;3.114;2023-04-25T00:55:06;9.20;99.90
18721;DHT22;9489;50.948;3.114;2023-04-25T00:57:31;9.10;99.90
18721;DHT22;9489;50.948;3.114;2023-04-25T00:59:58;9.10;99.90
18721;DHT22;9489;50.948;3.114;2023-04-25T01:02:24;9.10;99.90
18721;DHT22;9489;50.948;3.114;2023-04-25T01:04:51;9.00;99.90
18721;DHT22;9489;50.948;3.114;2023-04-25T01:07:17;9.10;99.90
18721;DHT22;9489;50.948;3.114;2023-04-25T01:09:42;9.00;99.90
18721;DHT22;9489;50.948;3.114;2023-04-25T01:12:08;8.90;99.90
18721;DHT22;9489;50.948;3.114;2023-04-25T01:14:34;8.90;99.90
18721;DHT22;9489;50.948;3.114;2023-04-25T01:17:00;9.00;99.90
18721;DHT22;9489;50.948;3.114;2023-04-25T01:19:26;8.90;99.90
18721;DHT22;9489;50.948;3.114;2023-04-25T01:21:52;9.00;99.90
18721;DHT22;9489;50.948;3.114;2023-04-25T01:24:18;8.80;99.90
18721;DHT22;9489;50.948;3.114;2023-04-25T01:26:44;8.80;99.90
18721;DHT22;9489;50.948;3.114;2023-04-25T01:29:16;8.80;99.90
18721;DHT22;9489;50.948;3.114;2023-04-25T01:31:43;8.80;99.90
18721;DHT22;9489;50.948;3.114;2023-04-25T01:34:10;8.80;99.90
18721;DHT22;9489;50.948;3.114;2023-04-25T01:36:35;8.80;99.90
18721;DHT22;9489;50.948;3.114;2023-04-25T01:39:01;8.70;99.90
18721;DHT22;9489;50.948;3.114;2023-04-25T01:41:27;8.60;99.90
18721;DHT22;9489;50.948;3.114;2023-04-25T01:43:53;8.60;99.90
18721;DHT22;9489;50.948;3.114;2023-04-25T01:46:19;8.70;99.90
18721;DHT22;9489;50.948;3.114;2023-04-25T01:48:44;8.60;99.90
18721;DHT22;9489;50.948;3.114;2023-04-25T01:51:10;8.60;99.90
18721;DHT22;9489;50.948;3.114;2023-04-25T01:53:37;8.70;99.90
18721;DHT22;9489;50.948;3.114;2023-04-25T01:56:03;8.70;99.90
18721;DHT22;9489;50.948;3.114;2023-04-25T01:58:29;8.70;99.90
18721;DHT22;9489;50.948;3.114;2023-04-25T02:00:55;8.70;99.90
18721;DHT22;9489;50.948;3.114;2023-04-25T02:03:21;8.60;99.90
18721;DHT22;9489;50.948;3.114;2023-04-25T02:05:46;8.60;99.90
18721;DHT22;9489;50.948;3.114;2023-04-25T02:08:12;8.60;99.90
18721;DHT22;9489;50.948;3.114;2023-04-25T02:10:38;8.70;99.90
18721;DHT22;9489;50.948;3.114;2023-04-25T02:13:03;8.70;99.90
18721;DHT22;9489;50.948;3.114;2023-04-25T02:15:30;8.70;99.90
18721;DHT22;9489;50.948;3.114;2023-04-25T02:17:56;8.70;99.90
18721;DHT22;9489;50.948;3.114;2023-04-25T02:20:24;8.60;99.90
18721;DHT22;9489;50.948;3.114;2023-04-25T02:22:49;8.60;99.90
18721;DHT22;9489;50.948;3.114;2023-04-25T02:25:15;8.60;99.90
18721;DHT22;9489;50.948;3.114;2023-04-25T02:27:45;8.60;99.90
18721;DHT22;9489;50.948;3.114;2023-04-25T02:30:11;8.60;99.90
18721;DHT22;9489;50.948;3.114;2023-04-25T02:32:38;8.60;99.90
18721;DHT22;9489;50.948;3.114;2023-04-25T02:35:04;8.50;99.90
18721;DHT22;9489;50.948;3.114;2023-04-25T02:37:31;8.60;99.90
18721;DHT22;9489;50.948;3.114;2023-04-25T02:39:57;8.50;99.90
18721;DHT22;9489;50.948;3.114;2023-04-25T02:42:22;8.50;99.90
18721;DHT22;9489;50.948;3.114;2023-04-25T02:44:48;8.50;99.90
18721;DHT22;9489;50.948;3.114;2023-04-25T02:47:14;8.50;99.90
18721;DHT22;9489;50.948;3.114;2023-04-25T02:49:40;8.50;99.90
18721;DHT22;9489;50.948;3.114;2023-04-25T02:52:05;8.60;99.90
18721;DHT22;9489;50.948;3.114;2023-04-25T02:54:31;8.50;99.90
18721;DHT22;9489;50.948;3.114;2023-04-25T02:56:57;8.50;99.90
18721;DHT22;9489;50.948;3.114;2023-04-25T02:59:23;8.60;99.90
18721;DHT22;9489;50.948;3.114;2023-04-25T03:01:48;8.60;99.90
18721;DHT22;9489;50.948;3.114;2023-04-25T03:04:14;8.60;99.90
18721;DHT22;9489;50.948;3.114;2023-04-25T03:06:40;8.60;99.90
18721;DHT22;9489;50.948;3.114;2023-04-25T03:09:06;8.60;99.90
18721;DHT22;9489;50.948;3.114;2023-04-25T03:11:31;8.60;99.90
18721;DHT22;9489;50.948;3.114;2023-04-25T03:13:57;8.60;99.90
18721;DHT22;9489;50.948;3.114;2023-04-25T03:16:23;8.60;99.90
18721;DHT22;9489;50.948;3.114;2023-04-25T03:18:49;8.50;99.90
18721;DHT22;9489;50.948;3.114;2023-04-25T03:21:16;8.50;99.90
18721;DHT22;9489;50.948;3.114;2023-04-25T03:23:42;8.50;99.90
18721;DHT22;9489;50.948;3.114;2023-04-25T03:26:08;8.40;99.90
18721;DHT22;9489;50.948;3.114;2023-04-25T03:28:33;8.30;99.90
18721;DHT22;9489;50.948;3.114;2023-04-25T03:30:59;8.40;99.90
18721;DHT22;9489;50.948;3.114;2023-04-25T03:33:25;8.40;99.90
18721;DHT22;9489;50.948;3.114;2023-04-25T03:35:51;8.40;99.90
18721;DHT22;9489;50.948;3.114;2023-04-25T03:38:17;8.40;99.90
18721;DHT22;9489;50.948;3.114;2023-04-25T03:40:43;8.50;99.90
18721;DHT22;9489;50.948;3.114;2023-04-25T03:43:08;8.50;99.90
18721;DHT22;9489;50.948;3.114;2023-04-25T03:45:34;8.50;99.90
18721;DHT22;9489;50.948;3.114;2023-04-25T03:48:00;8.50;99.90
18721;DHT22;9489;50.948;3.114;2023-04-25T03:50:25;8.50;99.90
18721;DHT22;9489;50.948;3.114;2023-04-25T03:52:51;8.50;99.90
18721;DHT22;9489;50.948;3.114;2023-04-25T03:55:17;8.50;99.90
18721;DHT22;9489;50.948;3.114;2023-04-25T03:57:42;8.50;99.90
18721;DHT22;9489;50.948;3.114;2023-04-25T04:00:08;8.50;99.90
18721;DHT22;9489;50.948;3.114;2023-04-25T04:02:35;8.50;99.90
18721;DHT22;9489;50.948;3.114;2023-04-25T04:05:02;8.30;99.90
18721;DHT22;9489;50.948;3.114;2023-04-25T04:07:28;8.20;99.90
18721;DHT22;9489;50.948;3.114;2023-04-25T04:09:53;8.10;99.90
18721;DHT22;9489;50.948;3.114;2023-04-25T04:12:19;8.00;99.90
18721;DHT22;9489;50.948;3.114;2023-04-25T04:14:45;8.10;99.90
18721;DHT22;9489;50.948;3.114;2023-04-25T04:17:10;8.10;99.90
18721;DHT22;9489;50.948;3.114;2023-04-25T04:19:36;8.20;99.90
18721;DHT22;9489;50.948;3.114;2023-04-25T04:22:02;8.20;99.90
18721;DHT22;9489;50.948;3.114;2023-04-25T04:24:27;8.10;99.90
18721;DHT22;9489;50.948;3.114;2023-04-25T04:26:53;8.20;99.90
18721;DHT22;9489;50.948;3.114;2023-04-25T04:29:19;8.10;99.90
18721;DHT22;9489;50.948;3.114;2023-04-25T04:31:50;8.20;99.90
18721;DHT22;9489;50.948;3.114;2023-04-25T04:34:16;8.20;99.90
18721;DHT22;9489;50.948;3.114;2023-04-25T04:36:43;8.20;99.90
18721;DHT22;9489;50.948;3.114;2023-04-25T04:39:12;8.00;99.90
18721;DHT22;9489;50.948;3.114;2023-04-25T04:41:37;8.00;99.90
18721;DHT22;9489;50.948;3.114;2023-04-25T04:44:04;8.00;99.90
18721;DHT22;9489;50.948;3.114;2023-04-25T04:46:29;7.90;99.90
18721;DHT22;9489;50.948;3.114;2023-04-25T04:49:06;8.00;99.90
18721;DHT22;9489;50.948;3.114;2023-04-25T04:51:32;8.00;99.90
18721;DHT22;9489;50.948;3.114;2023-04-25T04:53:58;8.00;99.90
18721;DHT22;9489;50.948;3.114;2023-04-25T04:56:30;8.10;99.90
18721;DHT22;9489;50.948;3.114;2023-04-25T04:58:57;8.10;99.90
18721;DHT22;9489;50.948;3.114;2023-04-25T05:01:22;8.10;99.90
18721;DHT22;9489;50.948;3.114;2023-04-25T05:03:48;8.00;99.90
18721;DHT22;9489;50.948;3.114;2023-04-25T05:06:14;8.00;1.00
18721;DHT22;9489;50.948;3.114;2023-04-25T05:08:40;7.90;1.00
18721;DHT22;9489;50.948;3.114;2023-04-25T05:11:05;8.00;1.00
18721;DHT22;9489;50.948;3.114;2023-04-25T05:13:31;8.00;99.90
18721;DHT22;9489;50.948;3.114;2023-04-25T05:15:57;8.00;99.90
18721;DHT22;9489;50.948;3.114;2023-04-25T05:18:22;8.10;99.90
18721;DHT22;9489;50.948;3.114;2023-04-25T05:20:48;8.20;99.90
18721;DHT22;9489;50.948;3.114;2023-04-25T05:23:14;8.20;99.90
18721;DHT22;9489;50.948;3.114;2023-04-25T05:25:39;8.20;99.90
18721;DHT22;9489;50.948;3.114;2023-04-25T05:28:05;8.20;99.90
18721;DHT22;9489;50.948;3.114;2023-04-25T05:30:31;8.20;99.90
18721;DHT22;9489;50.948;3.114;2023-04-25T05:32:57;8.30;99.90
18721;DHT22;9489;50.948;3.114;2023-04-25T05:35:22;8.30;99.90
18721;DHT22;9489;50.948;3.114;2023-04-25T05:37:48;8.40;99.90
18721;DHT22;9489;50.948;3.114;2023-04-25T05:40:13;8.50;99.90
18721;DHT22;9489;50.948;3.114;2023-04-25T05:42:39;8.60;99.90
18721;DHT22;9489;50.948;3.114;2023-04-25T05:45:05;8.80;1.00
18721;DHT22;9489;50.948;3.114;2023-04-25T05:47:31;8.90;1.00
18721;DHT22;9489;50.948;3.114;2023-04-25T05:49:57;8.90;1.00
18721;DHT22;9489;50.948;3.114;2023-04-25T05:52:22;9.00;1.00
18721;DHT22;9489;50.948;3.114;2023-04-25T05:54:48;9.00;1.00
18721;DHT22;9489;50.948;3.114;2023-04-25T05:57:24;9.00;1.00
18721;DHT22;9489;50.948;3.114;2023-04-25T05:59:51;8.90;1.00
18721;DHT22;9489;50.948;3.114;2023-04-25T06:02:17;9.00;1.00
18721;DHT22;9489;50.948;3.114;2023-04-25T06:04:43;8.90;1.00
18721;DHT22;9489;50.948;3.114;2023-04-25T06:07:09;8.80;1.00
18721;DHT22;9489;50.948;3.114;2023-04-25T06:09:35;8.70;1.00
18721;DHT22;9489;50.948;3.114;2023-04-25T06:12:00;8.70;1.00
18721;DHT22;9489;50.948;3.114;2023-04-25T06:14:27;8.60;1.00
18721;DHT22;9489;50.948;3.114;2023-04-25T06:16:53;8.70;1.00
18721;DHT22;9489;50.948;3.114;2023-04-25T06:19:18;8.70;1.00
18721;DHT22;9489;50.948;3.114;2023-04-25T06:21:45;8.80;1.00
18721;DHT22;9489;50.948;3.114;2023-04-25T06:24:10;8.70;1.00
18721;DHT22;9489;50.948;3.114;2023-04-25T06:26:36;8.70;1.00
18721;DHT22;9489;50.948;3.114;2023-04-25T06:29:02;8.60;1.00
18721;DHT22;9489;50.948;3.114;2023-04-25T06:31:28;8.60;1.00
18721;DHT22;9489;50.948;3.114;2023-04-25T06:33:54;8.60;1.00
18721;DHT22;9489;50.948;3.114;2023-04-25T06:36:23;8.70;1.00
18721;DHT22;9489;50.948;3.114;2023-04-25T06:38:53;8.70;1.00
18721;DHT22;9489;50.948;3.114;2023-04-25T06:41:20;8.80;1.00
18721;DHT22;9489;50.948;3.114;2023-04-25T06:43:46;9.00;1.00
18721;DHT22;9489;50.948;3.114;2023-04-25T06:46:12;9.00;1.00
18721;DHT22;9489;50.948;3.114;2023-04-25T06:48:37;9.10;1.00
18721;DHT22;9489;50.948;3.114;2023-04-25T06:51:03;9.10;99.90
18721;DHT22;9489;50.948;3.114;2023-04-25T06:53:29;9.20;99.90
18721;DHT22;9489;50.948;3.114;2023-04-25T06:55:54;9.30;99.90
18721;DHT22;9489;50.948;3.114;2023-04-25T06:58:20;9.30;99.90
18721;DHT22;9489;50.948;3.114;2023-04-25T07:00:46;9.40;99.90
18721;DHT22;9489;50.948;3.114;2023-04-25T07:03:11;9.50;60.80
18721;DHT22;9489;50.948;3.114;2023-04-25T07:05:37;9.60;2.30
18721;DHT22;9489;50.948;3.114;2023-04-25T07:08:03;9.60;1.00
18721;DHT22;9489;50.948;3.114;2023-04-25T07:10:29;9.60;1.00
18721;DHT22;9489;50.948;3.114;2023-04-25T07:12:55;9.80;1.00
18721;DHT22;9489;50.948;3.114;2023-04-25T07:15:20;9.70;99.90
18721;DHT22;9489;50.948;3.114;2023-04-25T07:17:46;9.90;99.90
18721;DHT22;9489;50.948;3.114;2023-04-25T07:20:12;10.00;99.90
18721;DHT22;9489;50.948;3.114;2023-04-25T07:22:37;10.20;99.90
18721;DHT22;9489;50.948;3.114;2023-04-25T07:25:03;10.50;99.90
18721;DHT22;9489;50.948;3.114;2023-04-25T07:27:30;10.70;99.90
18721;DHT22;9489;50.948;3.114;2023-04-25T07:29:55;11.20;99.90
18721;DHT22;9489;50.948;3.114;2023-04-25T07:32:21;11.90;99.90
18721;DHT22;9489;50.948;3.114;2023-04-25T07:34:47;12.90;99.90
18721;DHT22;9489;50.948;3.114;2023-04-25T07:37:13;13.70;99.90
18721;DHT22;9489;50.948;3.114;2023-04-25T07:39:39;14.20;99.90
18721;DHT22;9489;50.948;3.114;2023-04-25T07:42:05;14.80;99.90
18721;DHT22;9489;50.948;3.114;2023-04-25T07:44:34;15.30;99.90
18721;DHT22;9489;50.948;3.114;2023-04-25T07:47:08;15.60;99.90
18721;DHT22;9489;50.948;3.114;2023-04-25T07:49:34;15.60;99.90
18721;DHT22;9489;50.948;3.114;2023-04-25T07:52:01;14.30;99.90
18721;DHT22;9489;50.948;3.114;2023-04-25T07:54:27;14.00;99.90
18721;DHT22;9489;50.948;3.114;2023-04-25T07:56:53;13.40;99.90
18721;DHT22;9489;50.948;3.114;2023-04-25T07:59:19;13.00;99.90
18721;DHT22;9489;50.948;3.114;2023-04-25T08:01:44;12.60;99.90
18721;DHT22;9489;50.948;3.114;2023-04-25T08:04:10;12.20;99.90
18721;DHT22;9489;50.948;3.114;2023-04-25T08:06:36;12.10;99.90
18721;DHT22;9489;50.948;3.114;2023-04-25T08:09:02;11.80;99.90
18721;DHT22;9489;50.948;3.114;2023-04-25T08:11:28;11.60;99.90
18721;DHT22;9489;50.948;3.114;2023-04-25T08:13:54;11.70;99.90
18721;DHT22;9489;50.948;3.114;2023-04-25T08:16:20;11.90;99.90
18721;DHT22;9489;50.948;3.114;2023-04-25T08:18:45;12.20;99.90
18721;DHT22;9489;50.948;3.114;2023-04-25T08:21:11;12.80;99.90
18721;DHT22;9489;50.948;3.114;2023-04-25T08:23:38;13.60;99.90
18721;DHT22;9489;50.948;3.114;2023-04-25T08:26:03;13.50;99.90
18721;DHT22;9489;50.948;3.114;2023-04-25T08:28:30;13.20;99.90
18721;DHT22;9489;50.948;3.114;2023-04-25T08:30:56;13.10;99.90
18721;DHT22;9489;50.948;3.114;2023-04-25T08:33:22;13.00;99.90
18721;DHT22;9489;50.948;3.114;2023-04-25T08:35:49;12.40;99.90
18721;DHT22;9489;50.948;3.114;2023-04-25T08:38:14;12.10;99.90
18721;DHT22;9489;50.948;3.114;2023-04-25T08:40:41;12.00;99.90
18721;DHT22;9489;50.948;3.114;2023-04-25T08:43:09;11.90;99.90
18721;DHT22;9489;50.948;3.114;2023-04-25T08:45:41;11.70;99.90
18721;DHT22;9489;50.948;3.114;2023-04-25T08:48:10;11.90;99.90
18721;DHT22;9489;50.948;3.114;2023-04-25T08:50:45;12.60;99.90
18721;DHT22;9489;50.948;3.114;2023-04-25T08:53:12;13.70;99.90
18721;DHT22;9489;50.948;3.114;2023-04-25T08:55:45;14.90;99.90
18721;DHT22;9489;50.948;3.114;2023-04-25T08:58:11;15.50;99.90
18721;DHT22;9489;50.948;3.114;2023-04-25T09:00:38;15.40;99.90
18721;DHT22;9489;50.948;3.114;2023-04-25T09:03:04;15.40;99.90
18721;DHT22;9489;50.948;3.114;2023-04-25T09:05:31;15.10;99.90
18721;DHT22;9489;50.948;3.114;2023-04-25T09:07:57;15.30;99.90
18721;DHT22;9489;50.948;3.114;2023-04-25T09:10:23;15.80;99.90
18721;DHT22;9489;50.948;3.114;2023-04-25T09:13:06;16.80;99.90
18721;DHT22;9489;50.948;3.114;2023-04-25T09:15:50;17.80;99.90
18721;DHT22;9489;50.948;3.114;2023-04-25T09:18:29;18.60;99.90
18721;DHT22;9489;50.948;3.114;2023-04-25T09:20:57;19.20;99.90
18721;DHT22;9489;50.948;3.114;2023-04-25T09:23:23;19.20;99.90
18721;DHT22;9489;50.948;3.114;2023-04-25T09:25:52;19.30;99.90
18721;DHT22;9489;50.948;3.114;2023-04-25T09:28:28;19.30;99.90
18721;DHT22;9489;50.948;3.114;2023-04-25T09:30:57;19.90;99.90
18721;DHT22;9489;50.948;3.114;2023-04-25T09:33:28;20.70;99.90
18721;DHT22;9489;50.948;3.114;2023-04-25T09:36:08;21.00;99.90
18721;DHT22;9489;50.948;3.114;2023-04-25T09:38:42;21.20;97.30
18721;DHT22;9489;50.948;3.114;2023-04-25T09:41:08;21.70;96.30
18721;DHT22;9489;50.948;3.114;2023-04-25T09:43:35;21.80;94.80
18721;DHT22;9489;50.948;3.114;2023-04-25T09:46:02;21.10;93.20
18721;DHT22;9489;50.948;3.114;2023-04-25T09:48:28;20.60;93.60
18721;DHT22;9489;50.948;3.114;2023-04-25T09:51:06;20.60;93.20
18721;DHT22;9489;50.948;3.114;2023-04-25T09:53:40;20.70;94.80
18721;DHT22;9489;50.948;3.114;2023-04-25T09:56:08;20.50;92.50
18721;DHT22;9489;50.948;3.114;2023-04-25T09:58:36;21.00;92.50
18721;DHT22;9489;50.948;3.114;2023-04-25T10:01:06;21.40;91.40
18721;DHT22;9489;50.948;3.114;2023-04-25T10:03:35;21.90;87.90
18721;DHT22;9489;50.948;3.114;2023-04-25T10:06:03;22.40;84.70
18721;DHT22;9489;50.948;3.114;2023-04-25T10:08:36;22.10;86.20
18721;DHT22;9489;50.948;3.114;2023-04-25T10:11:06;22.90;83.80
18721;DHT22;9489;50.948;3.114;2023-04-25T10:13:34;22.70;80.80
18721;DHT22;9489;50.948;3.114;2023-04-25T10:16:03;23.30;81.60
18721;DHT22;9489;50.948;3.114;2023-04-25T10:18:30;22.80;81.50
18721;DHT22;9489;50.948;3.114;2023-04-25T10:21:00;21.20;83.60
18721;DHT22;9489;50.948;3.114;2023-04-25T10:23:27;19.60;85.60
18721;DHT22;9489;50.948;3.114;2023-04-25T10:25:54;18.80;87.10
18721;DHT22;9489;50.948;3.114;2023-04-25T10:28:20;18.30;88.20
18721;DHT22;9489;50.948;3.114;2023-04-25T10:31:07;17.70;88.50
18721;DHT22;9489;50.948;3.114;2023-04-25T10:36:11;19.10;87.30
18721;DHT22;9489;50.948;3.114;2023-04-25T10:38:38;20.80;86.20
18721;DHT22;9489;50.948;3.114;2023-04-25T10:41:08;21.90;83.50
18721;DHT22;9489;50.948;3.114;2023-04-25T10:43:35;20.80;83.80
18721;DHT22;9489;50.948;3.114;2023-04-25T10:46:22;20.30;86.30
18721;DHT22;9489;50.948;3.114;2023-04-25T10:49:08;19.30;86.30
18721;DHT22;9489;50.948;3.114;2023-04-25T10:51:36;18.40;85.00
18721;DHT22;9489;50.948;3.114;2023-04-25T10:54:04;17.80;89.90
18721;DHT22;9489;50.948;3.114;2023-04-25T10:56:37;17.70;88.30
18721;DHT22;9489;50.948;3.114;2023-04-25T10:59:11;17.90;85.60
18721;DHT22;9489;50.948;3.114;2023-04-25T11:01:39;19.10;83.10
18721;DHT22;9489;50.948;3.114;2023-04-25T11:04:05;20.70;82.30
18721;DHT22;9489;50.948;3.114;2023-04-25T11:07:34;22.50;79.30
18721;DHT22;9489;50.948;3.114;2023-04-25T11:09:33;23.40;75.50
18721;DHT22;9489;50.948;3.114;2023-04-25T11:11:59;22.00;75.30
18721;DHT22;9489;50.948;3.114;2023-04-25T11:14:26;21.10;75.60
18721;DHT22;9489;50.948;3.114;2023-04-25T11:16:59;20.60;79.20
18721;DHT22;9489;50.948;3.114;2023-04-25T11:19:27;19.80;80.60
18721;DHT22;9489;50.948;3.114;2023-04-25T11:22:00;20.40;81.10
18721;DHT22;9489;50.948;3.114;2023-04-25T11:24:29;21.60;80.60
18721;DHT22;9489;50.948;3.114;2023-04-25T11:26:56;21.80;73.30
18721;DHT22;9489;50.948;3.114;2023-04-25T11:29:26;20.40;75.60
18721;DHT22;9489;50.948;3.114;2023-04-25T11:31:52;19.40;78.00
18721;DHT22;9489;50.948;3.114;2023-04-25T11:34:18;19.20;80.10
18721;DHT22;9489;50.948;3.114;2023-04-25T11:36:45;19.40;81.00
18721;DHT22;9489;50.948;3.114;2023-04-25T11:39:12;18.90;81.40
18721;DHT22;9489;50.948;3.114;2023-04-25T11:41:38;18.30;82.10
18721;DHT22;9489;50.948;3.114;2023-04-25T11:44:04;17.50;84.50
18721;DHT22;9489;50.948;3.114;2023-04-25T11:46:30;16.40;86.60
18721;DHT22;9489;50.948;3.114;2023-04-25T11:48:57;15.40;89.60
18721;DHT22;9489;50.948;3.114;2023-04-25T11:51:22;14.90;90.50
18721;DHT22;9489;50.948;3.114;2023-04-25T11:53:48;14.30;90.10
18721;DHT22;9489;50.948;3.114;2023-04-25T11:56:14;14.00;90.30
18721;DHT22;9489;50.948;3.114;2023-04-25T11:59:03;13.90;91.20
18721;DHT22;9489;50.948;3.114;2023-04-25T12:01:37;14.30;95.80
18721;DHT22;9489;50.948;3.114;2023-04-25T12:04:17;14.50;98.60
18721;DHT22;9489;50.948;3.114;2023-04-25T12:06:45;14.40;99.90
18721;DHT22;9489;50.948;3.114;2023-04-25T12:09:16;14.70;99.90
18721;DHT22;9489;50.948;3.114;2023-04-25T12:11:54;15.00;99.90
18721;DHT22;9489;50.948;3.114;2023-04-25T12:14:24;14.90;99.90
18721;DHT22;9489;50.948;3.114;2023-04-25T12:16:52;14.90;99.90
18721;DHT22;9489;50.948;3.114;2023-04-25T12:19:19;14.70;99.90
18721;DHT22;9489;50.948;3.114;2023-04-25T12:21:46;14.90;99.90
18721;DHT22;9489;50.948;3.114;2023-04-25T12:24:15;15.10;99.90
18721;DHT22;9489;50.948;3.114;2023-04-25T12:27:10;15.40;99.90
18721;DHT22;9489;50.948;3.114;2023-04-25T12:29:35;16.30;99.90
18721;DHT22;9489;50.948;3.114;2023-04-25T12:32:01;16.00;99.90
18721;DHT22;9489;50.948;3.114;2023-04-25T12:34:29;15.20;99.90
18721;DHT22;9489;50.948;3.114;2023-04-25T12:36:57;14.80;99.90
18721;DHT22;9489;50.948;3.114;2023-04-25T12:39:24;15.10;99.90
18721;DHT22;9489;50.948;3.114;2023-04-25T12:41:53;15.30;99.90
18721;DHT22;9489;50.948;3.114;2023-04-25T12:44:20;15.80;99.90
18721;DHT22;9489;50.948;3.114;2023-04-25T12:46:45;16.30;99.90
18721;DHT22;9489;50.948;3.114;2023-04-25T12:49:12;16.70;99.90
18721;DHT22;9489;50.948;3.114;2023-04-25T12:51:38;17.20;99.40
18721;DHT22;9489;50.948;3.114;2023-04-25T12:54:04;17.70;97.70
18721;DHT22;9489;50.948;3.114;2023-04-25T12:56:31;18.30;96.30
18721;DHT22;9489;50.948;3.114;2023-04-25T12:58:57;17.80;95.90
18721;DHT22;9489;50.948;3.114;2023-04-25T13:01:24;17.80;94.20
18721;DHT22;9489;50.948;3.114;2023-04-25T13:03:50;17.80;95.00
18721;DHT22;9489;50.948;3.114;2023-04-25T13:06:16;18.00;94.60
18721;DHT22;9489;50.948;3.114;2023-04-25T13:08:42;18.80;91.60
18721;DHT22;9489;50.948;3.114;2023-04-25T13:11:08;19.80;90.20
18721;DHT22;9489;50.948;3.114;2023-04-25T13:13:35;19.60;88.30
18721;DHT22;9489;50.948;3.114;2023-04-25T13:16:01;19.20;86.40
18721;DHT22;9489;50.948;3.114;2023-04-25T13:18:28;19.20;86.00
18721;DHT22;9489;50.948;3.114;2023-04-25T13:20:54;19.10;83.90
18721;DHT22;9489;50.948;3.114;2023-04-25T13:23:20;19.00;86.80
18721;DHT22;9489;50.948;3.114;2023-04-25T13:25:46;18.90;80.40
18721;DHT22;9489;50.948;3.114;2023-04-25T13:28:12;18.60;82.40
18721;DHT22;9489;50.948;3.114;2023-04-25T13:30:38;18.20;82.30
18721;DHT22;9489;50.948;3.114;2023-04-25T13:33:04;18.50;81.00
18721;DHT22;9489;50.948;3.114;2023-04-25T13:35:32;18.60;82.70
18721;DHT22;9489;50.948;3.114;2023-04-25T13:37:59;18.80;84.10
18721;DHT22;9489;50.948;3.114;2023-04-25T13:40:25;18.90;85.40
18721;DHT22;9489;50.948;3.114;2023-04-25T13:42:52;18.40;85.40
18721;DHT22;9489;50.948;3.114;2023-04-25T13:45:18;18.50;86.90
18721;DHT22;9489;50.948;3.114;2023-04-25T13:47:43;19.00;88.20
18721;DHT22;9489;50.948;3.114;2023-04-25T13:50:09;18.90;85.00
18721;DHT22;9489;50.948;3.114;2023-04-25T13:52:35;18.70;84.10
18721;DHT22;9489;50.948;3.114;2023-04-25T13:55:01;18.20;87.60
18721;DHT22;9489;50.948;3.114;2023-04-25T13:57:30;17.30;90.50
18721;DHT22;9489;50.948;3.114;2023-04-25T13:59:55;16.90;91.00
18721;DHT22;9489;50.948;3.114;2023-04-25T14:02:21;16.40;91.90
18721;DHT22;9489;50.948;3.114;2023-04-25T14:04:47;15.80;92.90
18721;DHT22;9489;50.948;3.114;2023-04-25T14:07:14;15.50;93.90
18721;DHT22;9489;50.948;3.114;2023-04-25T14:09:42;15.30;94.20
18721;DHT22;9489;50.948;3.114;2023-04-25T14:12:07;14.90;92.80
18721;DHT22;9489;50.948;3.114;2023-04-25T14:14:33;14.80;93.90
18721;DHT22;9489;50.948;3.114;2023-04-25T14:16:59;14.60;94.60
18721;DHT22;9489;50.948;3.114;2023-04-25T14:19:24;14.70;94.80
18721;DHT22;9489;50.948;3.114;2023-04-25T14:21:50;14.70;93.10
18721;DHT22;9489;50.948;3.114;2023-04-25T14:24:16;14.80;93.10
18721;DHT22;9489;50.948;3.114;2023-04-25T14:26:42;14.80;94.00
18721;DHT22;9489;50.948;3.114;2023-04-25T14:29:08;14.80;95.00
18721;DHT22;9489;50.948;3.114;2023-04-25T14:31:35;14.90;95.10
18721;DHT22;9489;50.948;3.114;2023-04-25T14:34:01;14.80;95.50
18721;DHT22;9489;50.948;3.114;2023-04-25T14:36:31;14.60;96.20
18721;DHT22;9489;50.948;3.114;2023-04-25T14:38:57;14.60;96.80
18721;DHT22;9489;50.948;3.114;2023-04-25T14:41:24;14.80;96.50
18721;DHT22;9489;50.948;3.114;2023-04-25T14:43:50;14.80;95.30
18721;DHT22;9489;50.948;3.114;2023-04-25T14:46:16;14.60;94.50
18721;DHT22;9489;50.948;3.114;2023-04-25T14:48:42;14.60;95.10
18721;DHT22;9489;50.948;3.114;2023-04-25T14:51:08;14.40;96.10
18721;DHT22;9489;50.948;3.114;2023-04-25T14:53:33;14.30;96.70
18721;DHT22;9489;50.948;3.114;2023-04-25T14:55:59;14.00;97.70
18721;DHT22;9489;50.948;3.114;2023-04-25T14:58:25;13.90;98.80
18721;DHT22;9489;50.948;3.114;2023-04-25T15:00:50;14.00;99.10
18721;DHT22;9489;50.948;3.114;2023-04-25T15:03:16;13.80;99.90
18721;DHT22;9489;50.948;3.114;2023-04-25T15:05:43;13.90;99.90
18721;DHT22;9489;50.948;3.114;2023-04-25T15:08:08;13.90;99.90
18721;DHT22;9489;50.948;3.114;2023-04-25T15:10:35;13.70;99.90
18721;DHT22;9489;50.948;3.114;2023-04-25T15:13:01;13.80;99.90
18721;DHT22;9489;50.948;3.114;2023-04-25T15:15:28;13.90;99.90
18721;DHT22;9489;50.948;3.114;2023-04-25T15:17:55;14.20;99.90
18721;DHT22;9489;50.948;3.114;2023-04-25T15:20:21;14.50;99.90
18721;DHT22;9489;50.948;3.114;2023-04-25T15:22:47;14.80;99.90
18721;DHT22;9489;50.948;3.114;2023-04-25T15:25:15;14.90;99.90
18721;DHT22;9489;50.948;3.114;2023-04-25T15:27:44;15.10;99.80
18721;DHT22;9489;50.948;3.114;2023-04-25T15:30:12;15.20;99.80
18721;DHT22;9489;50.948;3.114;2023-04-25T15:32:44;15.10;99.00
18721;DHT22;9489;50.948;3.114;2023-04-25T15:35:10;15.00;99.00
18721;DHT22;9489;50.948;3.114;2023-04-25T15:37:37;15.00;99.40
18721;DHT22;9489;50.948;3.114;2023-04-25T15:40:08;14.90;98.90
18721;DHT22;9489;50.948;3.114;2023-04-25T15:42:54;15.00;98.30
18721;DHT22;9489;50.948;3.114;2023-04-25T15:45:22;14.80;97.70
18721;DHT22;9489;50.948;3.114;2023-04-25T15:47:51;14.80;97.20
18721;DHT22;9489;50.948;3.114;2023-04-25T15:50:20;14.60;98.30
18721;DHT22;9489;50.948;3.114;2023-04-25T15:52:47;14.40;98.70
18721;DHT22;9489;50.948;3.114;2023-04-25T15:55:13;14.50;99.10
18721;DHT22;9489;50.948;3.114;2023-04-25T15:57:39;14.50;98.50